Latest Weather Observations for Swanbourne

IDW60801

Issued at 11:35 pm WST Thursday 30 October 2014 (issued every 30 minutes, with the page automatically refreshed every 10 minutes)

About weather observations | Map of weather stations | Latest weather observations for WA | Other Formats
Station Details ID: 009215 Name: SWANBOURNE Lat: -31.96 Lon: 115.76 Height: 40.96 m
Data from the previous 72 hours. | See also: Recent months at Swanbourne
Date/Time
WST
Temp
°C
App
Temp
°C
Dew
Point
Rel
Hum
%
Delta-T
°C
Wind Press
QNH
hPa
Press
MSL
hPa
Rain
since 9 am
mm
Dir
 
Spd
km/h
Gust
km/h
Spd
kts
Gust
kts
30/11:30pm 17.4 13.9 12.1 71 2.9 WSW 22 30 12 16 - - 0.0
30/11:00pm 17.1 13.4 11.6 70 3.0 SW 22 30 12 16 - - 0.0
30/10:30pm 16.9 14.1 13.2 79 2.1 SW 20 33 11 18 - - 0.0
30/10:00pm 16.1 14.1 12.8 81 1.8 SW 15 20 8 11 - - 0.0
30/09:30pm 16.7 12.6 13.8 83 1.6 SW 28 39 15 21 - - 0.0
30/09:00pm 17.5 14.1 11.3 67 3.4 WSW 20 32 11 17 - - 0.0
30/08:30pm 17.7 14.8 12.2 70 3.0 SW 19 28 10 15 - - 0.0
30/08:00pm 17.9 14.4 11.0 64 3.7 WSW 20 28 11 15 - - 0.0
30/07:30pm 17.8 14.8 10.7 63 3.8 SW 17 26 9 14 - - 0.0
30/07:00pm 17.8 13.1 9.4 58 4.4 WSW 24 39 13 21 - - 0.0
30/06:30pm 17.8 14.4 11.1 65 3.6 WSW 20 30 11 16 - - 0.0
30/06:00pm 17.8 14.1 11.4 66 3.5 SW 22 33 12 18 - - 0.0
30/05:30pm 18.0 14.4 11.8 67 3.4 WSW 22 33 12 18 - - 0.0
30/05:00pm 18.3 14.9 11.4 64 3.8 WSW 20 32 11 17 - - 0.0
30/04:30pm 18.3 14.8 10.9 62 4.0 SW 20 30 11 16 - - 0.0
30/04:00pm 18.9 14.7 9.9 56 4.8 WSW 22 35 12 19 - - 0.0
30/03:30pm 19.1 15.7 11.2 60 4.3 WSW 20 35 11 19 - - 0.0
30/03:00pm 20.8 17.0 9.7 49 6.0 WSW 20 32 11 17 - - 0.0
30/02:30pm 20.0 15.8 11.0 56 4.9 WSW 24 32 13 17 - - 0.0
30/02:00pm 20.6 17.0 11.8 57 4.9 WSW 22 32 12 17 - - 0.0
30/01:30pm 21.6 18.6 11.9 54 5.4 SW 19 26 10 14 - - 0.0
30/01:00pm 20.9 17.6 11.0 53 5.4 SW 19 28 10 15 - - 0.0
30/12:30pm 21.6 18.5 11.6 53 5.6 SW 19 28 10 15 - - 0.0
30/12:00pm 21.7 18.4 11.7 53 5.6 WSW 20 28 11 15 - - 0.0
30/11:30am 20.4 17.5 12.4 60 4.5 SW 19 30 10 16 - - 0.0
30/11:00am 20.1 17.3 13.1 64 4.0 SW 20 28 11 15 - - 0.0
30/10:30am 20.4 17.9 13.4 64 4.0 SW 19 26 10 14 - - 0.0
30/10:00am 19.0 16.7 14.1 73 2.8 SW 19 28 10 15 - - 0.0
30/09:30am 19.8 17.7 13.7 68 3.5 SSW 17 22 9 12 - - 0.0
30/09:00am 19.9 18.2 13.6 67 3.6 SSW 15 24 8 13 - - 0.0
30/08:30am 19.2 17.2 14.0 72 3.0 SSW 17 22 9 12 - - 0.0
30/08:00am 17.6 16.0 13.9 79 2.1 SSW 15 22 8 12 - - 0.0
30/07:30am 16.8 15.6 13.9 83 1.6 SSW 13 20 7 11 - - 0.0
30/07:00am 16.6 15.4 13.9 84 1.5 S 13 20 7 11 - - 0.0
30/06:30am 16.7 15.4 13.8 83 1.6 SSW 13 24 7 13 - - 0.0
30/06:00am 16.6 14.5 13.5 82 1.7 SSW 17 26 9 14 - - 0.0
30/05:30am 16.6 14.2 13.7 83 1.6 SW 19 30 10 16 - - 0.0
30/05:00am 16.3 16.1 13.6 84 1.5 S 7 13 4 7 - - 0.0
30/04:30am 16.4 15.9 13.7 84 1.5 S 9 15 5 8 - - 0.0
30/04:00am 16.6 15.7 13.7 83 1.6 S 11 17 6 9 - - 0.0
30/03:30am 16.9 15.1 14.4 85 1.4 SSW 17 28 9 15 - - 0.0
30/03:00am 16.6 15.0 13.9 84 1.5 S 15 28 8 15 - - 0.0
30/02:30am 16.7 14.5 14.3 86 1.4 SSW 19 28 10 15 - - 0.0
30/02:00am 16.8 14.6 14.3 85 1.4 SSW 19 30 10 16 - - 0.0
30/01:30am 16.8 15.1 14.8 88 1.2 S 17 24 9 13 - - 0.0
30/01:00am 16.8 15.1 14.8 88 1.2 S 17 26 9 14 - - 0.0
30/12:30am 17.2 14.6 14.8 86 1.4 SSW 22 35 12 19 - - 0.0
30/12:00am 17.3 14.6 14.6 84 1.6 SSW 22 33 12 18 - - 0.0
 
Date/Time
WST
Temp
°C
App
Temp
°C
Dew
Point
Rel
Hum
%
Delta-T
°C
Wind Press
QNH
hPa
Press
MSL
hPa
Rain
since 9 am
mm
Dir
 
Spd
km/h
Gust
km/h
Spd
kts
Gust
kts
29/11:30pm 17.6 15.0 14.9 84 1.6 SSW 22 33 12 18 - - 0.0
29/11:00pm 17.9 15.9 15.0 83 1.7 SSW 19 30 10 16 - - 0.0
29/10:30pm 17.8 16.3 15.2 85 1.5 SSW 17 26 9 14 - - 0.0
29/10:00pm 17.9 16.4 15.3 85 1.5 SSW 17 26 9 14 - - 0.0
29/09:30pm 17.9 16.5 15.5 86 1.4 S 17 28 9 15 - - 0.0
29/09:00pm 18.1 16.2 15.7 86 1.4 SSW 20 33 11 18 - - 0.0
29/08:30pm 18.1 15.7 15.5 85 1.5 SSW 22 32 12 17 - - 0.0
29/08:00pm 18.1 15.8 15.7 86 1.4 SSW 22 33 12 18 - - 0.0
29/07:30pm 18.1 16.5 15.9 87 1.3 SSW 19 28 10 15 - - 0.0
29/07:00pm 18.4 16.1 15.8 85 1.5 SW 22 32 12 17 - - 0.0
29/06:30pm 19.0 17.7 15.9 82 1.8 SW 17 24 9 13 - - 0.0
29/06:00pm 20.0 18.7 15.8 77 2.5 SSW 17 26 9 14 - - 0.0
29/05:30pm 20.4 19.1 15.8 75 2.7 SSW 17 28 9 15 - - 0.0
29/05:00pm 20.6 18.0 16.0 75 2.8 SW 24 35 13 19 - - 0.0
29/04:30pm 21.0 18.4 15.8 72 3.1 SSW 24 37 13 20 - - 0.0
29/04:00pm 21.3 19.0 15.8 71 3.3 SW 22 33 12 18 - - 0.0
29/03:30pm 21.6 20.0 16.1 71 3.3 SW 19 28 10 15 - - 0.0
29/03:00pm 22.6 20.9 16.2 67 3.9 SW 20 33 11 18 - - 0.0
29/02:30pm 21.3 19.5 16.0 72 3.2 SSW 20 32 11 17 - - 0.0
29/02:00pm 23.5 21.8 16.3 64 4.4 SSW 20 33 11 18 - - 0.0
29/01:30pm 22.1 19.8 15.7 67 3.8 SSW 22 32 12 17 - - 0.0
29/01:00pm 22.4 19.5 16.0 67 3.9 SSW 26 33 14 18 - - 0.0
29/12:30pm 21.8 18.1 15.9 69 3.5 SSW 30 43 16 23 - - 0.0
29/12:00pm 22.2 19.2 15.8 67 3.9 SSW 26 39 14 21 - - 0.0
29/11:30am 21.9 18.6 16.0 69 3.6 SSW 28 37 15 20 - - 0.0
29/11:00am 21.7 19.6 15.1 66 3.9 SSW 20 30 11 16 - - 0.0
29/10:30am 22.1 21.0 15.2 65 4.1 SW 15 24 8 13 - - 0.0
29/10:00am 22.1 20.5 15.0 64 4.2 SSW 17 24 9 13 - - 0.0
29/09:30am 20.1 18.4 14.7 71 3.2 SSW 17 24 9 13 - - 0.0
29/09:00am 19.9 18.3 15.1 74 2.8 SSW 17 24 9 13 - - 0.0
29/08:30am 20.5 19.1 14.6 69 3.5 SSW 15 24 8 13 - - 0.0
29/08:00am 20.5 18.7 14.4 68 3.6 SSW 17 22 9 12 - - 0.0
29/07:30am 21.0 20.3 14.2 65 4.0 S 11 17 6 9 - - 0.0
29/07:00am 17.8 17.7 13.9 78 2.2 S 7 11 4 6 - - 0.0
29/06:30am 18.1 18.3 14.6 80 2.0 S 7 11 4 6 - - 0.0
29/06:00am 17.2 16.3 13.7 80 2.0 S 11 15 6 8 - - 0.0
29/05:30am 17.5 17.1 14.0 80 2.0 S 9 13 5 7 - - 0.0
29/05:00am 17.8 17.4 14.1 79 2.1 S 9 15 5 8 - - 0.0
29/04:30am 18.0 16.6 13.5 75 2.6 S 13 15 7 8 - - 0.0
29/04:00am 18.4 17.5 13.7 74 2.7 SW 11 17 6 9 - - 0.0
29/03:30am 18.2 16.9 13.7 75 2.6 S 13 20 7 11 - - 0.0
29/03:00am 18.3 17.0 13.8 75 2.6 S 13 22 7 12 - - 0.0
29/02:30am 18.4 17.8 14.7 79 2.1 S 11 17 6 9 - - 0.0
29/02:00am 18.3 18.1 14.8 80 2.0 S 9 15 5 8 - - 0.0
29/01:30am 18.1 18.2 15.5 85 1.5 S 9 15 5 8 - - 0.0
29/01:00am 18.4 18.8 16.4 88 1.2 S 9 13 5 7 - - 0.0
29/12:30am 18.7 19.3 16.9 89 1.1 S 9 15 5 8 - - 0.0
29/12:00am 18.9 19.7 17.2 90 1.0 S 9 17 5 9 - - 0.0
 
Date/Time
WST
Temp
°C
App
Temp
°C
Dew
Point
Rel
Hum
%
Delta-T
°C
Wind Press
QNH
hPa
Press
MSL
hPa
Rain
since 9 am
mm
Dir
 
Spd
km/h
Gust
km/h
Spd
kts
Gust
kts
28/11:30pm 18.8 19.5 16.2 85 1.6 S 7 9 4 5 - - 0.0
28/11:00pm 18.9 19.7 16.3 85 1.6 S 7 9 4 5 - - 0.0
28/10:30pm 18.9 19.2 16.1 84 1.7 S 9 11 5 6 - - 0.0
28/10:00pm 18.9 19.6 16.0 83 1.7 S 7 9 4 5 - - 0.0
28/09:30pm 19.1 19.7 15.8 81 2.0 S 7 11 4 6 - - 0.0
28/09:00pm 19.2 19.3 15.5 79 2.2 S 9 13 5 7 - - 0.0
28/08:30pm 19.5 19.0 15.0 75 2.6 S 11 17 6 9 - - 0.0
28/08:00pm 19.8 19.3 15.0 74 2.8 S 11 20 6 11 - - 0.0
28/07:30pm 19.9 19.2 15.3 75 2.7 S 13 19 7 10 - - 0.0
28/07:00pm 20.0 18.8 15.0 73 2.9 S 15 22 8 12 - - 0.0
28/06:30pm 20.4 19.8 14.5 69 3.4 S 11 20 6 11 - - 0.0
28/06:00pm 21.2 19.5 14.8 67 3.8 S 17 26 9 14 - - 0.0
28/05:30pm 21.2 19.1 14.8 67 3.8 S 19 26 10 14 - - 0.0
28/05:00pm 22.8 20.4 15.4 63 4.4 SSW 22 32 12 17 - - 0.0
28/04:30pm 24.2 22.3 15.7 59 5.1 SSW 20 30 11 16 - - 0.0
28/04:00pm 23.8 22.5 14.8 57 5.4 SSW 15 24 8 13 - - 0.0
28/03:30pm 24.8 23.8 15.7 57 5.5 SSW 15 26 8 14 - - 0.0
28/03:00pm 23.3 22.1 16.1 64 4.4 SSW 17 28 9 15 - - 0.0
28/02:30pm 23.4 21.9 16.2 64 4.4 SSW 19 28 10 15 - - 0.0
28/02:00pm 22.3 19.9 16.3 69 3.6 SSW 24 33 13 18 - - 0.0
28/01:30pm 22.1 20.3 16.1 69 3.6 SSW 20 30 11 16 - - 0.0
28/01:00pm 22.7 20.7 15.5 64 4.3 SSW 20 30 11 16 - - 0.0
28/12:30pm 21.9 19.9 15.0 65 4.1 SSW 19 26 10 14 - - 0.0
28/12:00pm 23.0 22.0 15.6 63 4.5 SSW 15 26 8 14 - - 0.0
28/11:30am 25.6 24.5 13.1 46 7.3 SW 11 20 6 11 - - 0.0
28/11:00am 26.4 24.4 10.1 36 9.1 E 11 19 6 10 - - 0.0
28/10:30am 26.7 24.9 10.8 37 9.0 ESE 11 19 6 10 - - 0.0
28/10:00am 24.5 22.5 10.0 40 8.0 ESE 11 20 6 11 - - 0.0
28/09:30am 23.4 21.0 10.1 43 7.3 E 13 22 7 12 - - 0.0
28/09:00am 21.9 18.4 10.1 47 6.4 E 19 30 10 16 - - 0.0
28/08:30am 20.3 16.6 9.5 50 5.8 E 19 28 10 15 - - 0.0
28/08:00am 19.9 18.7 11.7 59 4.5 E 9 13 5 7 - - 0.0
28/07:30am 17.3 16.2 10.7 65 3.5 ESE 7 13 4 7 - - 0.0
28/07:00am 15.3 14.2 10.1 71 2.7 E 6 7 3 4 - - 0.0
28/06:30am 14.2 13.3 9.2 72 2.6 ENE 4 6 2 3 - - 0.0
28/06:00am 13.8 12.3 9.3 74 2.3 E 7 9 4 5 - - 0.0
28/05:30am 13.2 11.7 8.3 72 2.4 ENE 6 7 3 4 - - 0.0
28/05:00am 13.8 12.1 8.4 70 2.7 E 7 11 4 6 - - 0.0
28/04:30am 14.3 13.3 8.7 69 2.8 E 4 6 2 3 - - 0.0
28/04:00am 14.1 12.5 8.1 67 3.0 ESE 6 7 3 4 - - 0.0
28/03:30am 15.1 13.5 8.1 63 3.5 ESE 6 9 3 5 - - 0.0
28/03:00am 15.9 13.4 8.2 60 3.9 ESE 11 15 6 8 - - 0.0
28/02:30am 15.6 13.5 8.4 62 3.7 ESE 9 15 5 8 - - 0.0
28/02:00am 15.6 13.5 8.4 62 3.7 ESE 9 11 5 6 - - 0.0
28/01:30am 15.9 13.4 8.4 61 3.8 SE 11 15 6 8 - - 0.0
28/01:00am 16.0 13.2 8.7 62 3.7 SE 13 19 7 10 - - 0.0
28/12:30am 15.7 13.1 9.4 66 3.3 SE 13 19 7 10 - - 0.0
28/12:00am 15.0 13.1 10.4 74 2.4 SE 11 17 6 9 - - 0.0

Other Formats:

Comma delimited format used in spreadsheet applications
http://www.bom.gov.au/fwo/IDW60801/IDW60801.94614.axf

JavaScript Object Notation format (JSON) in row-major order
http://www.bom.gov.au/fwo/IDW60801/IDW60801.94614.json